createdAt,value
2024-02-13T00:00:29.528Z,32.35
2024-02-13T00:02:59.731Z,32.38
2024-02-13T00:05:30.103Z,32.38
2024-02-13T00:08:01.849Z,32.40
2024-02-13T00:10:33.103Z,32.38
2024-02-13T00:13:04.206Z,32.39
2024-02-13T00:15:37.413Z,32.41
2024-02-13T00:18:09.582Z,32.40
2024-02-13T00:20:41.200Z,32.45
2024-02-13T00:23:11.274Z,32.44
2024-02-13T00:25:41.393Z,32.44
2024-02-13T00:28:12.762Z,32.42
2024-02-13T00:30:46.088Z,32.39
2024-02-13T00:33:17.553Z,32.38
2024-02-13T00:35:50.160Z,32.38
2024-02-13T00:38:21.079Z,32.36
2024-02-13T00:40:51.492Z,32.31
2024-02-13T00:43:22.469Z,32.27
2024-02-13T00:45:53.093Z,32.24
2024-02-13T00:48:23.139Z,32.22
2024-02-13T00:50:54.535Z,32.19
2024-02-13T00:53:25.692Z,32.12
2024-02-13T00:55:55.683Z,32.14
2024-02-13T00:58:25.680Z,32.12
2024-02-13T01:00:57.547Z,32.09
2024-02-13T01:03:27.707Z,32.08
2024-02-13T01:05:57.757Z,32.09
2024-02-13T01:08:28.027Z,32.07
2024-02-13T01:11:00.713Z,32.07
2024-02-13T01:13:32.051Z,32.05
2024-02-13T01:16:04.428Z,32.01
2024-02-13T01:18:37.144Z,31.97
2024-02-13T01:21:08.958Z,32.00
2024-02-13T01:23:39.257Z,32.02
2024-02-13T01:26:09.404Z,32.03
2024-02-13T01:28:39.345Z,32.03
2024-02-13T01:31:09.299Z,32.04
2024-02-13T01:33:39.545Z,32.04
2024-02-13T01:36:11.508Z,32.06
2024-02-13T01:38:41.604Z,32.09
2024-02-13T01:41:12.878Z,32.07
2024-02-13T01:43:42.970Z,32.09
2024-02-13T01:46:13.480Z,32.11
2024-02-13T01:48:44.612Z,32.12
2024-02-13T01:51:14.649Z,32.13
2024-02-13T01:53:45.536Z,32.15
2024-02-13T01:56:16.669Z,32.16
2024-02-13T01:58:46.671Z,32.20
2024-02-13T02:01:19.028Z,32.20
2024-02-13T02:03:50.594Z,32.22
2024-02-13T02:06:21.355Z,32.24
2024-02-13T02:08:51.323Z,32.26
2024-02-13T02:11:21.384Z,32.27
2024-02-13T02:13:51.516Z,32.29
2024-02-13T02:16:21.622Z,32.25
2024-02-13T02:18:51.626Z,32.26
2024-02-13T02:21:21.672Z,32.25
2024-02-13T02:23:51.904Z,32.24
2024-02-13T02:26:22.057Z,32.24
2024-02-13T02:28:52.019Z,32.17
2024-02-13T02:31:23.090Z,32.20
2024-02-13T02:33:53.217Z,32.18
2024-02-13T02:36:23.808Z,32.19
2024-02-13T02:38:53.900Z,32.16
2024-02-13T02:41:23.874Z,32.18
2024-02-13T02:43:54.290Z,32.17
2024-02-13T02:46:25.737Z,32.13
2024-02-13T02:48:55.944Z,32.14
2024-02-13T02:51:25.989Z,32.18
2024-02-13T02:53:56.168Z,32.13
2024-02-13T02:56:26.251Z,32.12
2024-02-13T02:58:59.234Z,32.13
2024-02-13T03:01:29.140Z,32.14
2024-02-13T03:03:59.721Z,32.12
2024-02-13T03:06:31.268Z,32.13
2024-02-13T03:09:01.403Z,32.10
2024-02-13T03:11:31.394Z,32.10
2024-02-13T03:14:01.602Z,32.14
2024-02-13T03:16:34.129Z,32.13
2024-02-13T03:19:07.632Z,32.13
2024-02-13T03:21:38.990Z,32.12
2024-02-13T03:24:09.872Z,32.12
2024-02-13T03:26:40.838Z,32.09
2024-02-13T03:29:11.014Z,32.06
2024-02-13T03:31:41.780Z,32.06
2024-02-13T03:34:13.745Z,32.05
2024-02-13T03:36:44.783Z,32.05
2024-02-13T03:39:14.811Z,32.05
2024-02-13T03:41:51.629Z,32.06
2024-02-13T03:44:22.232Z,32.08
2024-02-13T03:46:56.700Z,32.05
2024-02-13T03:49:29.097Z,32.00
2024-02-13T03:51:59.249Z,31.93
2024-02-13T03:54:29.536Z,31.97
2024-02-13T03:57:02.313Z,31.95
2024-02-13T03:59:32.970Z,31.97
2024-02-13T04:02:04.370Z,31.98
2024-02-13T04:04:35.358Z,31.97
2024-02-13T04:07:06.716Z,32.05
2024-02-13T04:09:38.441Z,32.15
2024-02-13T04:12:10.442Z,32.19
2024-02-13T04:14:43.671Z,32.17
2024-02-13T04:17:14.865Z,32.16
2024-02-13T04:19:51.921Z,32.16
2024-02-13T04:22:24.588Z,32.17
2024-02-13T04:24:54.515Z,32.18
2024-02-13T04:27:25.061Z,32.16
2024-02-13T04:29:55.433Z,32.15
2024-02-13T04:32:25.792Z,32.16
2024-02-13T04:34:55.922Z,32.16
2024-02-13T04:37:26.464Z,32.16
2024-02-13T04:39:57.949Z,32.11
2024-02-13T04:42:38.257Z,32.10
2024-02-13T04:45:09.052Z,32.12
2024-02-13T04:47:39.417Z,32.10
2024-02-13T04:50:12.794Z,32.12
2024-02-13T04:52:42.121Z,32.06
2024-02-13T04:55:13.008Z,32.04
2024-02-13T04:57:43.191Z,32.05
2024-02-13T05:00:18.220Z,32.06
2024-02-13T05:02:49.597Z,32.07
2024-02-13T05:05:37.568Z,32.05
2024-02-13T05:08:08.803Z,32.05
2024-02-13T05:10:38.927Z,32.07
2024-02-13T05:13:09.017Z,32.05
2024-02-13T05:15:38.990Z,32.03
2024-02-13T05:18:09.476Z,32.03
2024-02-13T05:20:42.339Z,32.00
2024-02-13T05:23:12.468Z,32.01
2024-02-13T05:25:43.429Z,32.00
2024-02-13T05:28:13.412Z,31.98
2024-02-13T05:30:43.348Z,31.97
2024-02-13T05:33:15.007Z,31.96
2024-02-13T05:35:46.572Z,31.96
2024-02-13T05:38:17.234Z,31.93
2024-02-13T05:40:47.629Z,31.92
2024-02-13T05:43:17.440Z,31.93
2024-02-13T05:45:48.652Z,31.93
2024-02-13T05:48:20.133Z,31.92
2024-02-13T05:50:51.791Z,31.92
2024-02-13T05:53:22.941Z,31.92
2024-02-13T05:55:53.483Z,31.92
2024-02-13T05:58:25.152Z,31.92
2024-02-13T06:00:55.224Z,31.88
2024-02-13T06:03:26.785Z,31.88
2024-02-13T06:05:57.218Z,31.90
2024-02-13T06:08:27.235Z,31.89
2024-02-13T06:10:57.343Z,31.86
2024-02-13T06:13:28.649Z,31.84
2024-02-13T06:15:58.573Z,31.83
2024-02-13T06:18:28.611Z,31.84
2024-02-13T06:20:58.982Z,31.86
2024-02-13T06:23:28.771Z,31.84
2024-02-13T06:25:59.988Z,31.85
2024-02-13T06:28:29.931Z,31.85
2024-02-13T06:31:00.455Z,31.81
2024-02-13T06:33:32.028Z,31.84
2024-02-13T06:36:03.196Z,31.81
2024-02-13T06:38:35.457Z,31.79
2024-02-13T06:41:07.755Z,31.80
2024-02-13T06:43:38.006Z,31.78
2024-02-13T06:46:08.123Z,31.77
2024-02-13T06:48:39.399Z,31.73
2024-02-13T06:51:10.987Z,31.74
2024-02-13T06:53:42.184Z,31.73
2024-02-13T06:56:14.545Z,31.69
2024-02-13T06:58:45.579Z,31.59
2024-02-13T07:01:16.878Z,31.57
2024-02-13T07:03:47.211Z,31.51
2024-02-13T07:06:32.299Z,31.51
2024-02-13T07:08:50.610Z,31.53
2024-02-13T07:11:20.902Z,31.53
2024-02-13T07:13:50.968Z,31.52
2024-02-13T07:16:21.490Z,31.55
2024-02-13T07:18:51.537Z,31.58
2024-02-13T07:21:21.687Z,31.60
2024-02-13T07:23:53.157Z,31.62
2024-02-13T07:26:24.554Z,31.63
2024-02-13T07:28:55.813Z,31.66
2024-02-13T07:31:26.020Z,31.66
2024-02-13T07:33:56.309Z,31.69
2024-02-13T07:36:26.522Z,31.71
2024-02-13T07:38:58.011Z,31.74
2024-02-13T07:41:28.047Z,31.75
2024-02-13T07:43:57.963Z,31.78
2024-02-13T07:46:28.109Z,31.79
2024-02-13T07:48:58.106Z,31.83
2024-02-13T07:51:28.350Z,31.85
2024-02-13T07:53:59.365Z,31.87
2024-02-13T07:56:33.451Z,31.88
2024-02-13T07:59:04.226Z,31.98
2024-02-13T08:01:35.209Z,32.03
2024-02-13T08:04:06.157Z,32.07
2024-02-13T08:06:38.024Z,32.09
2024-02-13T08:09:12.148Z,32.07
2024-02-13T08:11:44.751Z,32.07
2024-02-13T08:14:16.185Z,32.04
2024-02-13T08:16:46.456Z,32.01
2024-02-13T08:19:16.627Z,32.03
2024-02-13T08:21:46.595Z,32.02
2024-02-13T08:24:17.292Z,31.99
2024-02-13T08:26:48.994Z,32.00
2024-02-13T08:29:19.093Z,31.96
2024-02-13T08:31:50.283Z,31.96
2024-02-13T08:34:20.744Z,31.98
2024-02-13T08:36:50.948Z,31.97
2024-02-13T08:39:20.936Z,31.93
2024-02-13T08:41:50.918Z,31.94
2024-02-13T08:44:21.249Z,31.94
2024-02-13T08:46:51.305Z,31.93
2024-02-13T08:49:21.782Z,31.88
2024-02-13T08:51:51.918Z,31.90
2024-02-13T08:54:21.779Z,31.87
2024-02-13T08:56:51.941Z,31.87
2024-02-13T08:59:22.057Z,31.85
2024-02-13T09:01:52.019Z,31.81
2024-02-13T09:04:21.889Z,31.72
2024-02-13T09:06:52.004Z,31.69
2024-02-13T09:09:22.110Z,31.69
2024-02-13T09:11:52.185Z,31.66
2024-02-13T09:14:23.317Z,31.66
2024-02-13T09:16:53.401Z,31.64
2024-02-13T09:19:23.620Z,31.65
2024-02-13T09:21:53.864Z,31.64
2024-02-13T09:24:25.214Z,31.65
2024-02-13T09:26:55.715Z,31.65
2024-02-13T09:29:25.943Z,31.66
2024-02-13T09:31:56.301Z,31.64
2024-02-13T09:34:26.455Z,31.78
2024-02-13T09:36:56.953Z,31.78
2024-02-13T09:39:29.495Z,31.67
2024-02-13T09:42:00.279Z,31.68
2024-02-13T09:44:30.477Z,31.69
2024-02-13T09:47:00.516Z,31.72
2024-02-13T09:49:30.703Z,31.72
2024-02-13T09:52:00.773Z,31.73
2024-02-13T09:54:31.304Z,31.73
2024-02-13T09:57:01.862Z,31.73
2024-02-13T09:59:32.236Z,31.73
2024-02-13T10:02:03.272Z,31.75
2024-02-13T10:04:33.939Z,31.75
2024-02-13T10:07:06.458Z,31.76
2024-02-13T10:09:37.164Z,31.77
2024-02-13T10:12:16.491Z,31.77
2024-02-13T10:14:46.660Z,31.78
2024-02-13T10:17:16.807Z,31.78
2024-02-13T10:19:47.971Z,31.79
2024-02-13T10:22:19.036Z,31.80
2024-02-13T10:24:52.230Z,31.79
2024-02-13T10:27:22.160Z,31.79
2024-02-13T10:29:52.439Z,31.77
2024-02-13T10:32:22.528Z,31.77
2024-02-13T10:35:13.767Z,31.79
2024-02-13T10:37:44.032Z,31.77
2024-02-13T10:40:15.905Z,31.78
2024-02-13T10:42:46.301Z,31.77
2024-02-13T10:45:17.677Z,31.75
2024-02-13T10:47:56.661Z,31.76
2024-02-13T10:50:26.807Z,31.75
2024-02-13T10:52:57.088Z,31.73
2024-02-13T10:55:27.497Z,31.74
2024-02-13T10:57:58.524Z,31.75
2024-02-13T11:00:28.542Z,31.73
2024-02-13T11:02:58.634Z,31.73
2024-02-13T11:05:29.606Z,31.72
2024-02-13T11:07:59.342Z,31.69
2024-02-13T11:10:33.878Z,31.70
2024-02-13T11:13:10.920Z,31.77
2024-02-13T11:15:43.643Z,31.77
2024-02-13T11:18:15.809Z,31.70
2024-02-13T11:20:48.280Z,31.68
2024-02-13T11:23:18.649Z,31.67
2024-02-13T11:26:02.069Z,31.66
2024-02-13T11:28:36.754Z,31.65
2024-02-13T11:31:17.487Z,31.64
2024-02-13T11:34:06.488Z,31.62
2024-02-13T11:36:37.464Z,31.61
2024-02-13T11:39:09.432Z,31.59
2024-02-13T11:41:40.212Z,31.59
2024-02-13T11:44:14.584Z,31.56
2024-02-13T11:46:51.883Z,31.54
2024-02-13T11:49:22.448Z,31.52
2024-02-13T11:51:53.296Z,31.48
2024-02-13T11:54:23.312Z,31.44
2024-02-13T11:56:53.676Z,31.44
2024-02-13T11:59:23.933Z,31.45
2024-02-13T12:01:55.850Z,31.45
2024-02-13T12:04:26.510Z,31.45
2024-02-13T12:06:58.019Z,31.46
2024-02-13T12:09:27.943Z,31.46
2024-02-13T12:11:59.138Z,31.48
2024-02-13T12:14:30.996Z,31.47
2024-02-13T12:17:05.122Z,31.50
2024-02-13T12:19:38.284Z,31.53
2024-02-13T12:22:12.472Z,31.54
2024-02-13T12:24:46.496Z,31.59
2024-02-13T12:27:17.610Z,31.67
2024-02-13T12:29:49.427Z,31.72
2024-02-13T12:32:19.635Z,31.75
2024-02-13T12:34:51.600Z,31.76
2024-02-13T12:37:26.423Z,31.76
2024-02-13T12:39:58.745Z,31.73
2024-02-13T12:42:30.183Z,31.76
2024-02-13T12:45:02.861Z,31.75
2024-02-13T12:47:34.421Z,31.76
2024-02-13T12:50:06.504Z,31.78
2024-02-13T12:52:38.556Z,31.82
2024-02-13T12:55:11.987Z,31.79
2024-02-13T12:57:42.730Z,31.78
2024-02-13T13:00:14.956Z,31.77
2024-02-13T13:02:45.497Z,31.76
2024-02-13T13:05:16.576Z,31.75
2024-02-13T13:07:50.320Z,31.76
2024-02-13T13:10:21.816Z,31.76
2024-02-13T13:12:52.601Z,31.75
2024-02-13T13:15:25.725Z,31.74
2024-02-13T13:17:56.768Z,31.74
2024-02-13T13:20:28.010Z,31.75
2024-02-13T13:23:02.928Z,31.73
2024-02-13T13:25:36.778Z,31.73
2024-02-13T13:28:09.781Z,31.74
2024-02-13T13:30:41.411Z,31.77
2024-02-13T13:33:13.032Z,31.81
2024-02-13T13:35:45.336Z,31.82
2024-02-13T13:38:18.893Z,31.83
2024-02-13T13:40:49.443Z,31.84
2024-02-13T13:43:21.013Z,31.87
2024-02-13T13:45:58.400Z,31.89
2024-02-13T13:48:31.443Z,31.88
2024-02-13T13:51:03.259Z,31.87
2024-02-13T13:53:33.598Z,31.86
2024-02-13T13:56:04.975Z,31.81
2024-02-13T13:58:36.681Z,31.77
2024-02-13T14:01:09.045Z,31.73
2024-02-13T14:03:39.799Z,31.73
2024-02-13T14:06:09.930Z,31.73
2024-02-13T14:08:40.517Z,31.70
2024-02-13T14:11:10.385Z,31.68
2024-02-13T14:13:40.287Z,31.68
2024-02-13T14:16:11.226Z,31.67
2024-02-13T14:18:42.873Z,31.66
2024-02-13T14:21:13.176Z,31.66
2024-02-13T14:23:43.162Z,31.64
2024-02-13T14:26:13.269Z,31.64
2024-02-13T14:28:44.325Z,31.63
2024-02-13T14:31:14.939Z,31.61
2024-02-13T14:33:44.828Z,31.61
2024-02-13T14:36:15.807Z,31.62
2024-02-13T14:38:45.999Z,31.61
2024-02-13T14:41:17.130Z,31.60
2024-02-13T14:43:48.290Z,31.56
2024-02-13T14:46:18.153Z,31.55
2024-02-13T14:48:49.677Z,31.55
2024-02-13T14:51:20.612Z,31.56
2024-02-13T14:53:51.115Z,31.55
2024-02-13T14:56:21.278Z,31.52
2024-02-13T14:58:51.323Z,31.53
2024-02-13T15:01:23.396Z,31.44
2024-02-13T15:03:53.437Z,31.44
2024-02-13T15:06:25.156Z,31.51
2024-02-13T15:08:55.847Z,31.51
2024-02-13T15:11:26.188Z,31.51
2024-02-13T15:13:57.578Z,31.50
2024-02-13T15:16:29.279Z,31.45
2024-02-13T15:19:01.840Z,31.42
2024-02-13T15:21:36.472Z,31.43
2024-02-13T15:24:09.969Z,31.46
2024-02-13T15:26:41.762Z,31.46
2024-02-13T15:29:13.157Z,31.47
2024-02-13T15:31:44.513Z,31.44
2024-02-13T15:34:18.384Z,31.45
2024-02-13T15:36:53.002Z,31.40
2024-02-13T15:39:41.530Z,31.35
2024-02-13T15:42:12.852Z,31.39
2024-02-13T15:45:00.732Z,31.38
2024-02-13T15:47:32.204Z,31.41
2024-02-13T15:50:04.240Z,31.38
2024-02-13T15:52:36.482Z,31.40
2024-02-13T15:55:10.168Z,31.39
2024-02-13T15:57:45.855Z,31.35
2024-02-13T16:00:19.135Z,31.32
2024-02-13T16:02:49.236Z,31.31
2024-02-13T16:05:20.377Z,31.30
2024-02-13T16:07:51.831Z,31.33
2024-02-13T16:10:22.362Z,31.35
2024-02-13T16:12:52.491Z,31.34
2024-02-13T16:15:23.638Z,31.33
2024-02-13T16:17:54.685Z,31.33
2024-02-13T16:20:24.636Z,31.32
2024-02-13T16:22:54.533Z,31.29
2024-02-13T16:25:27.644Z,31.22
2024-02-13T16:27:57.247Z,31.23
2024-02-13T16:30:27.240Z,31.27
2024-02-13T16:32:57.680Z,31.29
2024-02-13T16:35:27.849Z,31.27
2024-02-13T16:37:58.294Z,31.27
2024-02-13T16:40:28.375Z,31.28
2024-02-13T16:43:01.422Z,31.27
2024-02-13T16:45:31.073Z,31.28
2024-02-13T16:48:01.333Z,31.22
2024-02-13T16:50:31.478Z,31.21
2024-02-13T16:53:01.672Z,31.17
2024-02-13T16:55:31.645Z,31.21
2024-02-13T16:58:03.986Z,31.23
2024-02-13T17:00:36.856Z,31.26
2024-02-13T17:03:08.194Z,31.25
2024-02-13T17:05:40.218Z,31.24
2024-02-13T17:08:11.809Z,31.23
2024-02-13T17:10:41.878Z,31.25
2024-02-13T17:13:13.462Z,31.23
2024-02-13T17:15:43.999Z,31.23
2024-02-13T17:18:16.288Z,31.22
2024-02-13T17:20:46.438Z,31.20
2024-02-13T17:23:16.637Z,31.19
2024-02-13T17:25:51.756Z,31.20
2024-02-13T17:28:22.088Z,31.22
2024-02-13T17:30:53.027Z,31.23
2024-02-13T17:33:23.185Z,31.20
2024-02-13T17:35:53.482Z,31.24
2024-02-13T17:38:24.695Z,31.23
2024-02-13T17:40:54.655Z,31.24
2024-02-13T17:43:24.773Z,31.24
2024-02-13T17:45:54.680Z,31.25
2024-02-13T17:48:26.086Z,31.22
2024-02-13T17:50:57.785Z,31.23
2024-02-13T17:53:27.943Z,31.25
2024-02-13T17:55:58.159Z,31.20
2024-02-13T17:58:28.068Z,31.20
2024-02-13T18:01:00.283Z,31.22
2024-02-13T18:03:30.189Z,31.21
2024-02-13T18:06:01.872Z,31.25
2024-02-13T18:08:31.970Z,31.23
2024-02-13T18:11:02.167Z,31.25
2024-02-13T18:13:32.040Z,31.26
2024-02-13T18:16:02.868Z,31.26
2024-02-13T18:18:33.127Z,31.25
2024-02-13T18:21:03.369Z,31.26
2024-02-13T18:23:33.414Z,31.24
2024-02-13T18:26:03.823Z,31.29
2024-02-13T18:28:33.706Z,31.26
2024-02-13T18:31:04.770Z,31.28
2024-02-13T18:33:36.027Z,31.26
2024-02-13T18:36:07.187Z,31.28
2024-02-13T18:38:37.967Z,31.29
2024-02-13T18:41:10.398Z,31.29
2024-02-13T18:43:40.420Z,31.27
2024-02-13T18:46:13.404Z,31.30
2024-02-13T18:48:43.515Z,31.29
2024-02-13T18:51:14.706Z,31.30
2024-02-13T18:53:45.862Z,31.30
2024-02-13T18:56:17.563Z,31.30
2024-02-13T18:58:48.077Z,31.31
2024-02-13T19:01:21.148Z,31.32
2024-02-13T19:03:51.264Z,31.33
2024-02-13T19:06:21.773Z,31.33
2024-02-13T19:08:52.264Z,31.33
2024-02-13T19:11:22.441Z,31.33
2024-02-13T19:13:52.390Z,31.33
2024-02-13T19:16:23.802Z,31.34
2024-02-13T19:18:54.432Z,31.35
2024-02-13T19:21:25.182Z,31.34
2024-02-13T19:23:55.128Z,31.35
2024-02-13T19:26:25.563Z,31.37
2024-02-13T19:28:55.330Z,31.37
2024-02-13T19:31:25.610Z,31.38
2024-02-13T19:33:55.520Z,31.38
2024-02-13T19:36:26.013Z,31.39
2024-02-13T19:38:55.794Z,31.39
2024-02-13T19:41:25.616Z,31.41
2024-02-13T19:43:56.780Z,31.41
2024-02-13T19:46:27.661Z,31.40
2024-02-13T19:48:57.790Z,31.40
2024-02-13T19:51:29.879Z,31.40
2024-02-13T19:54:01.597Z,31.40
2024-02-13T19:56:31.622Z,31.43
2024-02-13T19:59:02.094Z,31.42
2024-02-13T20:01:33.644Z,31.41
2024-02-13T20:04:03.990Z,31.43
2024-02-13T20:06:37.290Z,31.43
2024-02-13T20:09:09.411Z,31.46
2024-02-13T20:11:41.818Z,31.46
2024-02-13T20:14:11.785Z,31.49
2024-02-13T20:16:41.618Z,31.48
2024-02-13T20:19:11.819Z,31.52
2024-02-13T20:21:43.339Z,31.51
2024-02-13T20:24:14.522Z,31.53
2024-02-13T20:26:46.453Z,31.55
2024-02-13T20:29:17.075Z,31.56
2024-02-13T20:31:48.482Z,31.58
2024-02-13T20:34:18.879Z,31.57
2024-02-13T20:36:53.041Z,31.58
2024-02-13T20:39:23.160Z,31.59
2024-02-13T20:41:57.343Z,31.61
2024-02-13T20:44:28.968Z,31.60
2024-02-13T20:46:58.961Z,31.63
2024-02-13T20:49:29.337Z,31.63
2024-02-13T20:51:59.401Z,31.65
2024-02-13T20:54:30.436Z,31.65
2024-02-13T20:57:00.849Z,31.68
2024-02-13T20:59:31.954Z,31.68
2024-02-13T21:02:03.375Z,31.70
2024-02-13T21:04:33.598Z,31.72
2024-02-13T21:07:03.919Z,31.72
2024-02-13T21:09:34.400Z,31.74
2024-02-13T21:12:04.742Z,31.73
2024-02-13T21:14:34.829Z,31.75
2024-02-13T21:17:04.899Z,31.77
2024-02-13T21:19:35.410Z,31.78
2024-02-13T21:22:24.303Z,31.77
2024-02-13T21:24:54.633Z,31.80
2024-02-13T21:27:24.649Z,31.83
2024-02-13T21:29:54.731Z,31.86
2024-02-13T21:32:24.836Z,31.87
2024-02-13T21:34:55.063Z,31.87
2024-02-13T21:37:25.194Z,31.90
2024-02-13T21:39:55.278Z,31.94
2024-02-13T21:42:25.545Z,31.93
2024-02-13T21:44:55.509Z,31.93
2024-02-13T21:47:26.243Z,31.98
2024-02-13T21:49:56.185Z,31.98
2024-02-13T21:52:29.738Z,32.00
2024-02-13T21:55:05.274Z,32.02
2024-02-13T21:57:35.557Z,32.03
2024-02-13T22:00:08.571Z,32.02
2024-02-13T22:02:39.948Z,32.05
2024-02-13T22:05:11.147Z,32.07
2024-02-13T22:07:41.374Z,32.06
2024-02-13T22:10:14.402Z,32.07
2024-02-13T22:12:47.097Z,32.09
2024-02-13T22:15:17.574Z,32.09
2024-02-13T22:17:48.880Z,32.09
2024-02-13T22:20:20.533Z,32.08
2024-02-13T22:22:50.552Z,32.10
2024-02-13T22:25:20.526Z,32.10
2024-02-13T22:27:53.214Z,32.13
2024-02-13T22:30:23.254Z,32.13
2024-02-13T22:32:53.589Z,32.15
2024-02-13T22:35:23.612Z,32.15
2024-02-13T22:37:56.359Z,32.14
2024-02-13T22:40:26.392Z,32.15
2024-02-13T22:42:56.305Z,32.18
2024-02-13T22:45:27.178Z,32.19
2024-02-13T22:48:05.788Z,32.20
2024-02-13T22:50:37.839Z,32.20
2024-02-13T22:53:07.903Z,32.22
2024-02-13T22:55:44.929Z,32.22
2024-02-13T22:58:16.493Z,32.72
2024-02-13T23:00:48.073Z,32.71
2024-02-13T23:03:19.521Z,32.52
2024-02-13T23:05:52.563Z,32.44
2024-02-13T23:08:24.498Z,32.41
2024-02-13T23:10:54.676Z,32.39
2024-02-13T23:13:29.916Z,32.39
2024-02-13T23:15:58.553Z,32.38
2024-02-13T23:18:28.714Z,32.39
2024-02-13T23:20:58.998Z,32.38
2024-02-13T23:23:29.223Z,32.38
2024-02-13T23:25:59.309Z,32.38
2024-02-13T23:28:39.048Z,32.37
2024-02-13T23:31:02.100Z,32.39
2024-02-13T23:33:40.340Z,32.38
2024-02-13T23:36:12.815Z,32.39
2024-02-13T23:38:44.138Z,32.40
2024-02-13T23:41:14.541Z,32.42
2024-02-13T23:43:44.695Z,32.42
2024-02-13T23:46:14.968Z,32.42
2024-02-13T23:48:45.158Z,32.43
2024-02-13T23:51:16.781Z,32.40
2024-02-13T23:53:47.326Z,32.41
2024-02-13T23:56:19.180Z,32.42
2024-02-13T23:58:50.809Z,32.44
